Time;durP1;ratioP1;P1;durP2;ratioP2;P2;SDS_P1;SDS_P2;PMS_P1;PMS_P2;Temp;Humidity;BMP_temperature;BMP_pressure;BME280_temperature;BME280_humidity;BME280_pressure;Samples;Min_cycle;Max_cycle;Signal;HPM_P1;HPM_P2
2022/03/29 00:00:16;;;;;;;38.47;24.90;;;;;;;8.16;88.40;101869.47;5103677;28;20338;-79
2022/03/29 00:02:43;;;;;;;39.80;24.52;;;;;;;8.15;88.81;101862.50;5100351;28;20038;-79
2022/03/29 00:05:09;;;;;;;39.15;24.00;;;;;;;8.16;88.69;101854.66;5101560;28;20024;-79
2022/03/29 00:07:34;;;;;;;42.10;24.77;;;;;;;8.20;88.51;101845.03;5115015;28;20046;-79
2022/03/29 00:10:04;;;;;;;40.47;24.50;;;;;;;8.23;88.25;101839.78;5098113;28;20041;-79
2022/03/29 00:12:34;;;;;;;42.35;25.65;;;;;;;8.23;88.44;101837.19;5097366;28;20039;-79
2022/03/29 00:15:00;;;;;;;42.45;26.42;;;;;;;8.15;88.48;101842.53;5093293;28;20132;-79
2022/03/29 00:17:25;;;;;;;46.97;25.90;;;;;;;8.07;89.00;101840.00;5097996;28;20031;-79
2022/03/29 00:19:50;;;;;;;42.90;25.85;;;;;;;8.04;89.32;101841.78;5116055;28;20066;-79
2022/03/29 00:22:16;;;;;;;41.67;24.50;;;;;;;8.01;89.34;101834.03;5082301;28;20039;-79
2022/03/29 00:24:42;;;;;;;47.80;27.40;;;;;;;7.99;89.37;101830.59;5120744;28;20043;-79
2022/03/29 00:27:07;;;;;;;44.83;26.17;;;;;;;7.98;89.46;101828.84;5111545;28;20036;-79
2022/03/29 00:29:33;;;;;;;41.65;25.67;;;;;;;7.96;89.41;101822.78;5099059;28;20035;-79
2022/03/29 00:31:58;;;;;;;46.17;27.48;;;;;;;7.86;89.98;101824.66;5120167;28;20290;-79
2022/03/29 00:34:24;;;;;;;44.53;26.58;;;;;;;7.86;89.92;101822.06;5100471;28;20051;-79
2022/03/29 00:36:49;;;;;;;46.00;26.70;;;;;;;7.84;90.05;101818.59;5081741;28;20238;-79
2022/03/29 00:39:15;;;;;;;42.80;26.25;;;;;;;7.83;90.24;101819.50;5098411;28;20043;-79
2022/03/29 00:41:40;;;;;;;40.90;24.33;;;;;;;7.87;90.06;101819.41;5099909;28;20035;-79
2022/03/29 00:44:06;;;;;;;46.35;25.02;;;;;;;7.95;89.93;101811.50;5082150;28;20323;-79
2022/03/29 00:46:33;;;;;;;44.47;25.88;;;;;;;8.03;89.71;101808.78;5089954;28;20366;-79
2022/03/29 00:48:58;;;;;;;43.70;25.25;;;;;;;8.05;89.47;101809.59;5113063;28;20040;-79
2022/03/29 00:51:24;;;;;;;43.70;25.30;;;;;;;8.06;89.07;101808.75;5116432;28;20030;-79
2022/03/29 00:53:49;;;;;;;43.90;25.48;;;;;;;8.08;88.87;101807.81;5083880;28;20085;-79
2022/03/29 00:56:19;;;;;;;48.10;25.75;;;;;;;8.08;88.71;101794.78;5070070;28;20232;-79
2022/03/29 00:58:45;;;;;;;40.50;24.83;;;;;;;8.05;88.66;101804.41;5116079;28;20093;-79
2022/03/29 01:04:45;;;;;;;40.03;23.75;;;;;;;7.90;89.18;101804.63;5092833;28;20051;-79
2022/03/29 01:07:12;;;;;;;47.70;26.17;;;;;;;7.85;89.39;101797.69;5098421;28;20019;-79
2022/03/29 01:09:37;;;;;;;46.33;25.17;;;;;;;7.84;89.36;101795.13;5104025;28;20352;-79
2022/03/29 01:12:03;;;;;;;46.10;26.33;;;;;;;7.82;89.30;101795.16;5105419;27;20263;-79
2022/03/29 01:14:28;;;;;;;44.33;25.98;;;;;;;7.83;89.40;101793.41;5095385;28;20036;-79
2022/03/29 01:19:41;;;;;;;44.72;26.00;;;;;;;7.74;89.63;101783.97;5110026;27;20100;-79
2022/03/29 01:22:09;;;;;;;43.15;25.05;;;;;;;7.71;90.00;101780.53;5104320;28;20333;-79
2022/03/29 01:24:40;;;;;;;44.40;26.75;;;;;;;7.71;89.78;101773.56;5122400;27;20086;-79
2022/03/29 01:27:07;;;;;;;45.45;25.13;;;;;;;7.70;89.70;101769.25;5096779;28;20032;-79
2022/03/29 01:29:34;;;;;;;44.92;25.13;;;;;;;7.77;89.52;101772.66;5080247;28;20107;-79
2022/03/29 01:32:03;;;;;;;45.83;25.90;;;;;;;7.80;89.33;101763.00;5118502;27;20039;-79
2022/03/29 01:34:29;;;;;;;48.92;26.73;;;;;;;7.72;89.59;101772.69;5121160;27;20051;-79
2022/03/29 01:36:54;;;;;;;45.05;25.63;;;;;;;7.77;89.53;101757.84;5106597;28;20326;-79
2022/03/29 01:39:20;;;;;;;47.25;24.10;;;;;;;7.78;89.47;101766.53;5101562;28;20192;-79
2022/03/29 01:41:47;;;;;;;48.17;26.27;;;;;;;7.75;89.80;101764.84;5101675;28;20045;-79
2022/03/29 01:44:13;;;;;;;47.78;26.17;;;;;;;7.76;89.72;101765.69;5127408;27;20258;-79
2022/03/29 01:46:38;;;;;;;49.38;27.55;;;;;;;7.69;90.36;101770.13;5122232;27;20027;-79
2022/03/29 01:49:04;;;;;;;45.92;25.95;;;;;;;7.76;90.10;101760.47;5084311;27;20046;-79
2022/03/29 01:51:30;;;;;;;51.85;25.42;;;;;;;7.82;89.90;101756.03;5102215;27;20036;-79
2022/03/29 01:53:57;;;;;;;47.15;26.50;;;;;;;7.83;89.86;101749.94;5098305;28;20354;-79
2022/03/29 01:56:27;;;;;;;45.53;26.73;;;;;;;7.79;89.71;101750.88;5120662;27;20059;-79
2022/03/29 01:58:53;;;;;;;51.42;27.00;;;;;;;7.78;89.66;101749.13;5118346;27;20027;-79
2022/03/29 02:01:18;;;;;;;58.17;28.00;;;;;;;7.72;89.98;101746.63;5118767;28;20058;-79
2022/03/29 02:03:43;;;;;;;52.55;27.90;;;;;;;7.73;89.81;101743.13;5109512;27;20403;-79
2022/03/29 02:06:09;;;;;;;50.20;27.38;;;;;;;7.74;89.77;101739.63;5089760;27;20039;-79
2022/03/29 02:08:36;;;;;;;52.00;27.17;;;;;;;7.78;89.73;101736.09;5090204;28;20039;-79
2022/03/29 02:11:01;;;;;;;49.45;27.42;;;;;;;7.81;89.70;101732.59;5102559;27;20087;-79
2022/03/29 02:13:27;;;;;;;45.67;26.63;;;;;;;7.85;89.48;101723.81;5080784;28;20382;-79
2022/03/29 02:15:52;;;;;;;47.30;27.35;;;;;;;7.85;89.44;101721.22;5127682;27;20050;-79
2022/03/29 02:18:17;;;;;;;49.55;26.60;;;;;;;7.88;89.20;101714.22;5114007;28;20028;-79
2022/03/29 02:20:43;;;;;;;43.90;25.98;;;;;;;7.87;89.13;101709.00;5100034;28;20063;-79
2022/03/29 02:23:09;;;;;;;52.05;28.10;;;;;;;7.79;89.20;101710.91;5119186;27;20332;-79
2022/03/29 02:25:35;;;;;;;50.65;27.98;;;;;;;7.74;89.21;101708.34;5125503;27;20291;-79
2022/03/29 02:28:02;;;;;;;46.70;26.50;;;;;;;7.75;89.39;101711.81;5102543;27;20062;-79
2022/03/29 02:30:28;;;;;;;50.63;25.98;;;;;;;7.80;89.25;101704.78;5121329;27;20048;-79
2022/03/29 02:32:54;;;;;;;47.35;26.92;;;;;;;7.81;89.34;101701.31;5115635;27;20072;-79
2022/03/29 02:35:19;;;;;;;49.67;28.52;;;;;;;7.87;89.02;101690.75;5100055;28;20340;-79
2022/03/29 02:37:45;;;;;;;54.45;27.63;;;;;;;7.92;88.71;101693.31;5119786;27;20063;-79
2022/03/29 02:40:13;;;;;;;53.40;29.33;;;;;;;7.92;88.57;101691.56;5083524;28;20357;-79
2022/03/29 02:42:53;;;;;;;54.03;29.02;;;;;;;7.96;88.62;101679.31;5086458;28;20039;-79
2022/03/29 02:45:23;;;;;;;56.92;28.90;;;;;;;7.91;88.71;101687.22;5099978;28;20532;-79
2022/03/29 02:47:52;;;;;;;47.78;27.08;;;;;;;7.96;88.74;101684.53;5121318;27;20080;-79
2022/03/29 02:50:18;;;;;;;49.20;28.27;;;;;;;7.99;88.53;101681.88;5125137;27;20031;-79
2022/03/29 02:52:55;;;;;;;49.67;27.20;;;;;;;8.03;88.52;101679.19;5100443;28;20030;-79
2022/03/29 02:55:23;;;;;;;47.38;25.85;;;;;;;8.06;88.48;101671.31;5112332;28;20039;-79
2022/03/29 02:57:49;;;;;;;49.95;28.48;;;;;;;8.07;88.24;101670.41;5100623;28;20023;-79
2022/03/29 03:00:16;;;;;;;51.40;29.83;;;;;;;8.08;88.13;101671.31;5118466;27;20065;-79
2022/03/29 03:02:54;;;;;;;52.38;29.88;;;;;;;8.10;88.06;101666.06;5122603;27;20039;-79
2022/03/29 03:05:20;;;;;;;51.75;29.13;;;;;;;8.10;88.19;101664.31;5108575;28;20366;-79
2022/03/29 03:07:46;;;;;;;56.53;28.92;;;;;;;8.07;88.38;101656.53;5126700;27;20567;-79
2022/03/29 03:10:13;;;;;;;56.20;28.52;;;;;;;8.03;88.30;101658.31;5121597;27;20026;-79
2022/03/29 03:12:41;;;;;;;51.92;28.75;;;;;;;8.07;88.35;101656.53;5120035;27;20061;-79
2022/03/29 03:15:08;;;;;;;53.72;30.17;;;;;;;8.05;88.47;101650.47;5121022;27;20062;-79
2022/03/29 03:17:34;;;;;;;54.47;30.17;;;;;;;8.05;88.57;101648.72;5118932;27;20039;-79
2022/03/29 03:19:59;;;;;;;52.55;29.80;;;;;;;8.06;88.57;101649.59;5116235;28;20089;-79
2022/03/29 03:22:25;;;;;;;57.63;31.92;;;;;;;8.04;88.53;101648.75;5108517;27;20386;-79
2022/03/29 03:24:51;;;;;;;54.67;29.13;;;;;;;8.05;88.55;101643.50;5124779;27;20037;-79
2022/03/29 03:27:17;;;;;;;58.17;31.45;;;;;;;8.08;88.66;101638.22;5127377;27;20031;-79
2022/03/29 03:29:44;;;;;;;50.90;27.50;;;;;;;8.12;88.56;101631.22;5120095;27;20070;-79
2022/03/29 03:32:10;;;;;;;60.38;30.10;;;;;;;8.10;88.06;101627.78;5099085;28;20024;-79
2022/03/29 03:34:35;;;;;;;48.83;28.08;;;;;;;8.05;88.33;101629.59;5116173;28;20046;-79
2022/03/29 03:37:03;;;;;;;57.55;30.30;;;;;;;8.03;88.39;101628.78;5107100;28;20043;-79
2022/03/29 03:39:29;;;;;;;54.67;29.65;;;;;;;8.00;88.53;101619.22;5120922;27;20106;-79
2022/03/29 03:41:55;;;;;;;59.00;30.10;;;;;;;8.02;88.41;101621.81;5116649;28;20248;-79
2022/03/29 03:44:21;;;;;;;58.15;30.90;;;;;;;8.00;88.62;101616.63;5066411;28;20043;-79
2022/03/29 03:46:46;;;;;;;61.33;30.90;;;;;;;7.95;88.95;101609.78;5099897;28;20043;-79
2022/03/29 03:49:11;;;;;;;60.67;31.33;;;;;;;7.87;89.35;101609.91;5117190;27;20031;-79
2022/03/29 03:51:37;;;;;;;68.25;33.25;;;;;;;7.83;89.55;101606.50;5117444;28;20062;-79
2022/03/29 03:54:02;;;;;;;64.40;31.75;;;;;;;7.85;89.58;101602.09;5082304;28;20077;-80
2022/03/29 03:56:28;;;;;;;61.08;31.13;;;;;;;7.85;89.86;101603.88;5106776;28;20259;-79
2022/03/29 03:58:53;;;;;;;63.65;30.65;;;;;;;7.84;89.39;101589.97;5094284;28;20374;-79
2022/03/29 04:01:19;;;;;;;62.75;32.25;;;;;;;7.80;89.64;101590.03;5118489;27;20047;-79
2022/03/29 04:03:44;;;;;;;56.42;30.13;;;;;;;7.83;89.60;101587.38;5117601;28;20039;-79
2022/03/29 04:06:10;;;;;;;58.20;28.67;;;;;;;7.83;89.15;101579.56;5110799;28;20028;-79
2022/03/29 04:08:35;;;;;;;61.28;30.73;;;;;;;7.82;89.30;101585.66;5075397;28;20040;-79
2022/03/29 04:11:02;;;;;;;58.75;30.02;;;;;;;7.82;89.32;101590.88;5087957;28;20131;-79
2022/03/29 04:13:27;;;;;;;63.97;32.10;;;;;;;7.77;89.59;101583.13;5106820;28;20055;-79
2022/03/29 04:15:53;;;;;;;65.93;31.77;;;;;;;7.77;89.68;101596.19;5106987;28;20023;-79
2022/03/29 04:18:18;;;;;;;68.00;32.13;;;;;;;7.81;89.60;101587.41;5083004;28;20046;-79
2022/03/29 04:20:44;;;;;;;64.88;31.55;;;;;;;7.81;89.49;101576.13;5099318;28;20276;-79
2022/03/29 04:23:09;;;;;;;65.28;30.58;;;;;;;7.83;89.28;101587.38;5106466;28;20251;-79
2022/03/29 04:25:35;;;;;;;67.78;31.45;;;;;;;7.79;89.70;101578.75;5066061;28;20038;-79
2022/03/29 04:28:00;;;;;;;58.38;30.27;;;;;;;7.80;89.59;101577.84;5100534;28;20039;-79
2022/03/29 04:30:26;;;;;;;60.00;32.15;;;;;;;7.79;89.39;101573.53;5111174;28;20027;-79
2022/03/29 04:32:53;;;;;;;62.03;29.85;;;;;;;7.69;89.79;101571.97;5076771;28;20101;-79
2022/03/29 04:35:18;;;;;;;63.30;31.75;;;;;;;7.60;90.06;101572.97;5080815;28;20027;-79
2022/03/29 04:37:44;;;;;;;57.95;29.45;;;;;;;7.59;90.28;101581.69;5103406;28;20115;-79
2022/03/29 04:40:10;;;;;;;61.90;30.85;;;;;;;7.63;90.31;101577.28;5104663;28;20039;-79
2022/03/29 04:42:44;;;;;;;60.13;28.70;;;;;;;7.64;90.04;101577.28;5099491;28;20059;-79
2022/03/29 04:45:09;;;;;;;62.60;29.35;;;;;;;7.64;89.93;101577.28;5101868;28;20103;-79
2022/03/29 04:47:35;;;;;;;52.83;26.17;;;;;;;7.65;89.92;101570.31;5078263;28;20038;-79
2022/03/29 04:50:00;;;;;;;56.60;28.10;;;;;;;7.65;89.89;101571.16;5107173;28;20396;-79
2022/03/29 04:52:26;;;;;;;51.58;27.33;;;;;;;7.58;90.01;101566.06;5083553;28;20262;-79
2022/03/29 04:54:53;;;;;;;56.70;28.77;;;;;;;7.47;89.97;101569.72;5103161;28;20040;-79
2022/03/29 04:57:18;;;;;;;51.83;26.48;;;;;;;7.38;90.24;101569.00;5070238;28;20365;-79
2022/03/29 04:59:44;;;;;;;53.53;26.17;;;;;;;7.31;90.47;101563.03;5074742;28;20039;-79
2022/03/29 05:02:09;;;;;;;51.38;26.25;;;;;;;7.26;91.01;101564.84;5088572;28;20331;-79
2022/03/29 05:04:35;;;;;;;53.40;26.98;;;;;;;7.20;90.84;101559.72;5093453;28;20338;-79
2022/03/29 05:07:00;;;;;;;61.15;28.75;;;;;;;7.16;91.36;101558.06;5079246;28;20028;-79
2022/03/29 05:09:25;;;;;;;59.63;28.38;;;;;;;7.20;91.31;101552.75;5065627;28;20032;-79
2022/03/29 05:11:51;;;;;;;56.22;28.92;;;;;;;7.07;91.53;101544.28;5082641;28;20039;-79
2022/03/29 05:14:16;;;;;;;50.28;26.35;;;;;;;7.06;91.52;101552.97;5084934;28;20391;-79
2022/03/29 05:16:42;;;;;;;53.25;26.05;;;;;;;6.97;91.52;101545.31;5082349;28;20474;-79
2022/03/29 05:19:07;;;;;;;50.15;26.05;;;;;;;6.91;91.89;101554.06;5086415;28;20243;-79
2022/03/29 05:21:32;;;;;;;56.42;26.95;;;;;;;6.96;91.79;101551.38;5090215;28;20043;-79
2022/03/29 05:23:58;;;;;;;54.97;25.67;;;;;;;6.95;91.66;101560.09;5107144;28;20051;-79
2022/03/29 05:26:24;;;;;;;50.55;26.33;;;;;;;6.98;91.68;101567.84;5100627;28;20255;-79
2022/03/29 05:28:50;;;;;;;52.53;25.80;;;;;;;6.94;91.44;101560.97;5083194;28;20558;-79
2022/03/29 05:31:15;;;;;;;49.55;25.25;;;;;;;6.95;91.38;101559.22;5097767;28;20072;-79
2022/03/29 05:33:41;;;;;;;45.53;23.70;;;;;;;7.01;91.34;101565.22;5104174;28;20028;-79
2022/03/29 05:36:07;;;;;;;54.90;27.58;;;;;;;7.05;91.20;101559.06;5086698;28;20084;-79
2022/03/29 05:38:33;;;;;;;49.92;24.60;;;;;;;7.16;91.19;101566.72;5086452;28;20100;-79
2022/03/29 05:40:58;;;;;;;46.17;23.15;;;;;;;7.21;90.71;101566.66;5101684;28;20040;-79
2022/03/29 05:43:24;;;;;;;54.20;25.15;;;;;;;7.24;90.50;101574.41;5115041;28;20339;-79
2022/03/29 05:48:52;;;;;;;49.33;24.95;;;;;;;7.28;90.27;101573.50;5107490;28;20031;-79
2022/03/29 05:48:55;;;;;;;54.85;27.63;;;;;;;7.35;89.94;101571.66;5101576;27;20259;-79
2022/03/29 05:51:22;;;;;;;63.40;26.30;;;;;;;7.37;89.91;101573.38;5117647;27;20204;-79
2022/03/29 05:53:49;;;;;;;56.40;28.58;;;;;;;7.36;89.87;101571.63;5101529;28;20050;-79
2022/03/29 05:56:14;;;;;;;54.05;27.23;;;;;;;7.25;89.63;101569.19;5118504;28;20144;-79
2022/03/29 05:58:40;;;;;;;55.10;28.90;;;;;;;7.16;89.90;101568.47;5085509;28;20510;-79
2022/03/29 06:01:05;;;;;;;54.55;27.48;;;;;;;7.10;90.19;101572.03;5119098;27;20047;-79
2022/03/29 06:03:31;;;;;;;53.97;28.00;;;;;;;7.01;90.55;101572.16;5113617;27;20135;-79
2022/03/29 06:05:56;;;;;;;58.60;29.70;;;;;;;6.94;90.99;101562.72;5101418;28;20074;-79
2022/03/29 06:08:21;;;;;;;56.97;29.17;;;;;;;6.89;91.17;101562.75;5094128;28;20036;-79
2022/03/29 06:10:47;;;;;;;62.38;29.40;;;;;;;6.88;91.39;101564.53;5076696;28;20044;-79
2022/03/29 06:13:14;;;;;;;55.63;28.00;;;;;;;6.89;91.55;101561.03;5074542;28;20044;-79
2022/03/29 06:15:39;;;;;;;55.13;26.92;;;;;;;6.97;91.46;101558.31;5104865;27;20039;-79
2022/03/29 06:18:05;;;;;;;54.13;26.65;;;;;;;7.02;91.33;101553.03;5088745;27;20055;-79
2022/03/29 06:20:31;;;;;;;42.88;21.02;;;;;;;7.10;91.08;101551.19;5102382;27;20323;-79
2022/03/29 06:22:56;;;;;;;58.28;28.17;;;;;;;7.15;90.82;101544.19;5087301;27;20114;-79
2022/03/29 06:25:22;;;;;;;54.15;27.23;;;;;;;7.18;90.80;101545.88;5108032;27;20250;-79
2022/03/29 06:27:47;;;;;;;53.47;26.55;;;;;;;7.15;90.38;101557.22;5104821;28;20054;-80
2022/03/29 06:30:13;;;;;;;54.67;26.58;;;;;;;7.21;90.42;101551.88;5114247;27;20039;-79
2022/03/29 06:32:46;;;;;;;41.60;22.77;;;;;;;7.26;90.16;101559.66;5125967;27;20062;-79
2022/03/29 06:35:12;;;;;;;50.05;24.55;;;;;;;7.27;89.96;101550.94;5097705;27;20050;-79
2022/03/29 06:37:38;;;;;;;54.85;27.65;;;;;;;7.21;89.97;101564.06;5103984;28;20334;-79
2022/03/29 06:40:04;;;;;;;50.42;26.98;;;;;;;7.21;90.06;101549.28;5083726;28;20315;-79
2022/03/29 06:42:30;;;;;;;54.35;27.23;;;;;;;7.21;89.71;101558.84;5112139;27;20059;-79
2022/03/29 06:44:55;;;;;;;56.55;27.25;;;;;;;7.20;89.79;101557.13;5100048;27;20039;-80
2022/03/29 06:47:20;;;;;;;46.30;24.95;;;;;;;7.27;89.86;101553.53;5085993;27;20038;-80
2022/03/29 06:49:46;;;;;;;50.95;25.38;;;;;;;7.26;89.68;101562.25;5107569;28;20062;-80
2022/03/29 06:52:11;;;;;;;48.30;25.10;;;;;;;7.26;89.45;101562.25;5086943;28;20047;-80
2022/03/29 06:54:37;;;;;;;44.90;24.55;;;;;;;7.27;89.46;101559.59;5133691;27;20043;-80
2022/03/29 06:57:04;;;;;;;54.83;27.33;;;;;;;7.26;89.41;101557.03;5122298;27;20348;-80
2022/03/29 06:59:29;;;;;;;55.40;27.95;;;;;;;7.16;89.65;101552.84;5111766;28;20386;-80
2022/03/29 07:01:55;;;;;;;65.55;29.42;;;;;;;7.00;90.18;101554.81;5092142;28;20035;-80
2022/03/29 07:04:21;;;;;;;58.90;27.77;;;;;;;7.01;90.14;101553.94;5114842;27;20023;-80
2022/03/29 07:06:46;;;;;;;56.00;28.40;;;;;;;7.04;90.25;101549.53;5133201;27;20039;-80
2022/03/29 07:11:55;;;;;;;58.80;28.52;;;;;;;7.02;90.60;101551.31;5120844;27;20054;-79
2022/03/29 07:14:21;;;;;;;53.58;27.48;;;;;;;7.06;90.53;101554.75;5106030;28;20059;-80
2022/03/29 07:16:46;;;;;;;62.13;30.17;;;;;;;7.06;90.73;101559.94;5103139;28;20417;-80
2022/03/29 07:19:12;;;;;;;65.20;29.58;;;;;;;7.02;90.86;101561.72;5135587;27;20023;-80
2022/03/29 07:21:39;;;;;;;62.92;29.38;;;;;;;6.98;90.80;101564.38;5080262;28;20090;-80
2022/03/29 07:24:08;;;;;;;54.10;26.58;;;;;;;6.92;90.46;101558.38;5101325;28;20027;-80
2022/03/29 07:26:35;;;;;;;55.28;27.85;;;;;;;6.85;90.67;101569.75;5093476;28;20059;-80
2022/03/29 07:29:01;;;;;;;57.15;26.90;;;;;;;6.66;91.19;101568.31;5083017;28;20016;-80
2022/03/29 07:31:26;;;;;;;54.97;26.33;;;;;;;6.62;91.61;101561.38;5109596;28;20343;-80
2022/03/29 07:33:51;;;;;;;52.30;27.08;;;;;;;6.54;91.96;101564.09;5095489;28;20047;-80
2022/03/29 07:36:17;;;;;;;56.30;26.88;;;;;;;6.50;91.98;101570.22;5098120;28;20023;-80
2022/03/29 07:38:42;;;;;;;53.05;25.45;;;;;;;6.49;91.90;101555.47;5092947;28;20032;-80
2022/03/29 07:41:07;;;;;;;57.40;26.65;;;;;;;6.51;91.83;101559.81;5093323;28;20089;-80
2022/03/29 07:43:33;;;;;;;57.47;27.52;;;;;;;6.51;91.74;101554.59;5098185;28;20246;-80
2022/03/29 07:45:59;;;;;;;51.25;27.05;;;;;;;6.52;91.53;101561.50;5094214;27;20040;-80
2022/03/29 07:48:24;;;;;;;53.92;27.65;;;;;;;6.57;91.65;101560.56;5108548;28;20090;-80
2022/03/29 07:50:50;;;;;;;57.00;26.70;;;;;;;6.63;91.58;101565.72;5097773;28;20054;-80
2022/03/29 07:53:15;;;;;;;56.50;25.63;;;;;;;6.67;91.40;101570.00;5121403;27;20363;-80
2022/03/29 07:55:41;;;;;;;49.75;25.70;;;;;;;6.66;91.30;101571.75;5110971;28;20028;-80
2022/03/29 07:58:06;;;;;;;53.90;27.60;;;;;;;6.66;91.18;101563.94;5130730;27;20070;-80
2022/03/29 08:00:32;;;;;;;51.85;27.30;;;;;;;6.63;90.92;101560.53;5130262;27;20027;-80
2022/03/29 08:03:08;;;;;;;51.30;26.65;;;;;;;6.69;91.02;101556.09;5121704;27;20038;-80
2022/03/29 08:05:35;;;;;;;50.58;25.38;;;;;;;6.70;90.50;101550.00;5095024;27;20034;-80
2022/03/29 08:08:02;;;;;;;57.20;27.33;;;;;;;6.73;90.92;101554.28;5087104;28;20103;-80
2022/03/29 08:10:29;;;;;;;52.08;25.73;;;;;;;6.77;90.67;101552.50;5091784;28;20105;-80
2022/03/29 08:13:00;;;;;;;46.42;24.02;;;;;;;6.82;90.65;101554.19;5083011;27;20346;-80
2022/03/29 08:15:26;;;;;;;52.28;26.42;;;;;;;6.89;90.54;101547.16;5089315;28;20058;-80
2022/03/29 08:17:53;;;;;;;56.85;26.95;;;;;;;6.90;90.38;101548.88;5097292;28;20070;-80
2022/03/29 08:20:19;;;;;;;53.38;26.73;;;;;;;6.94;90.15;101544.50;5094302;28;20043;-80
2022/03/29 08:22:46;;;;;;;54.70;26.98;;;;;;;6.93;89.88;101548.84;5101158;27;20246;-80
2022/03/29 08:25:15;;;;;;;50.80;26.23;;;;;;;6.97;89.79;101539.22;5112750;28;20035;-80
2022/03/29 08:27:43;;;;;;;53.85;24.83;;;;;;;7.02;89.71;101538.28;5100968;28;20028;-80
2022/03/29 08:30:09;;;;;;;48.80;25.27;;;;;;;7.03;89.52;101542.59;5110016;28;20032;-80
2022/03/29 08:32:35;;;;;;;53.97;27.15;;;;;;;7.05;89.64;101542.59;5119391;27;20077;-80
2022/03/29 08:35:02;;;;;;;50.83;26.55;;;;;;;7.09;89.70;101541.66;5098206;28;20341;-80
2022/03/29 08:37:28;;;;;;;52.53;27.00;;;;;;;7.13;89.40;101545.94;5124034;27;20043;-80
2022/03/29 08:39:54;;;;;;;53.63;26.42;;;;;;;7.16;89.16;101545.88;5118823;27;20342;-80
2022/03/29 08:42:20;;;;;;;49.30;26.55;;;;;;;7.21;89.10;101551.03;5095539;28;20058;-80
2022/03/29 08:44:46;;;;;;;53.80;25.55;;;;;;;7.23;88.84;101552.72;5091385;28;20043;-80
2022/03/29 08:47:15;;;;;;;48.75;26.30;;;;;;;7.17;88.84;101544.13;5089612;28;20053;-80
2022/03/29 08:49:42;;;;;;;48.53;25.83;;;;;;;7.18;88.74;101553.69;5105964;28;20036;-79
2022/03/29 08:52:08;;;;;;;53.20;24.63;;;;;;;7.19;88.76;101553.66;5119913;27;20330;-79
2022/03/29 08:54:34;;;;;;;44.78;25.17;;;;;;;7.19;88.42;101547.59;5128395;27;20105;-80
2022/03/29 08:57:00;;;;;;;48.92;25.75;;;;;;;7.18;88.66;101543.25;5092427;27;20023;-80
2022/03/29 08:59:29;;;;;;;51.15;25.98;;;;;;;7.19;88.54;101548.44;5098563;28;20271;-80
2022/03/29 09:01:58;;;;;;;45.75;24.88;;;;;;;7.28;88.59;101542.25;5081480;27;20055;-80
2022/03/29 09:04:25;;;;;;;48.47;25.55;;;;;;;7.34;88.28;101542.13;5103237;27;20331;-80
2022/03/29 09:06:50;;;;;;;50.10;25.45;;;;;;;7.38;88.20;101535.97;5075886;28;20035;-79
2022/03/29 09:09:23;;;;;;;49.63;25.77;;;;;;;7.43;88.06;101535.91;5104026;27;20050;-80
2022/03/29 09:11:51;;;;;;;44.38;25.67;;;;;;;7.45;87.76;101526.31;5090591;28;20120;-79
2022/03/29 09:14:18;;;;;;;40.80;24.60;;;;;;;7.46;87.58;101534.13;5107652;28;20414;-79
2022/03/29 09:16:44;;;;;;;45.58;25.15;;;;;;;7.41;87.04;101533.34;5097695;28;20227;-79
2022/03/29 09:19:09;;;;;;;47.10;24.95;;;;;;;7.37;86.97;101538.59;5111402;28;20038;-79
2022/03/29 09:21:42;;;;;;;41.22;23.40;;;;;;;7.41;87.13;101548.97;5115047;27;20031;-80
2022/03/29 09:24:17;;;;;;;46.80;22.90;;;;;;;7.42;87.41;101536.78;5111382;27;20045;-79
2022/03/29 09:26:47;;;;;;;43.80;24.08;;;;;;;7.44;86.94;101529.81;5100027;28;20058;-79
2022/03/29 09:29:13;;;;;;;38.58;23.33;;;;;;;7.50;87.09;101532.31;5091380;28;20024;-80
2022/03/29 09:31:39;;;;;;;41.40;23.95;;;;;;;7.51;86.76;101536.63;5115305;27;20036;-80
2022/03/29 09:34:12;;;;;;;46.20;24.58;;;;;;;7.57;86.94;101543.53;5110928;27;20024;-80
2022/03/29 09:37:05;;;;;;;43.90;24.52;;;;;;;7.57;86.53;101539.16;5111480;27;20142;-80
2022/03/29 09:39:31;;;;;;;50.35;25.90;;;;;;;7.58;86.34;101534.78;5102239;27;20047;-79
2022/03/29 09:41:59;;;;;;;44.40;24.55;;;;;;;7.57;86.48;101526.13;5096265;28;20074;-80
2022/03/29 09:44:37;;;;;;;48.35;25.30;;;;;;;7.60;86.25;101525.19;5112594;28;20119;-80
2022/03/29 09:47:04;;;;;;;44.83;24.25;;;;;;;7.62;86.13;101518.22;5106183;28;20085;-80
2022/03/29 09:49:47;;;;;;;43.42;24.63;;;;;;;7.64;86.04;101525.13;5109740;28;20023;-80
2022/03/29 09:52:17;;;;;;;45.53;24.17;;;;;;;7.64;85.96;101522.53;5092732;28;20235;-80
2022/03/29 09:55:09;;;;;;;44.95;25.30;;;;;;;7.63;85.73;101531.22;5092036;28;20032;-80
2022/03/29 09:57:47;;;;;;;49.33;24.65;;;;;;;7.64;85.83;101529.47;5097816;28;20059;-80
2022/03/29 10:00:33;;;;;;;45.88;26.05;;;;;;;7.71;85.65;101523.25;5116298;27;20098;-80
2022/03/29 10:03:01;;;;;;;46.40;25.75;;;;;;;7.72;85.51;101522.38;5115912;27;20039;-80
2022/03/29 10:05:28;;;;;;;44.25;25.50;;;;;;;7.71;85.39;101518.03;5116827;27;20080;-80
2022/03/29 10:10:46;;;;;;;46.28;25.65;;;;;;;7.78;85.66;101508.38;5116297;27;20100;-80
2022/03/29 10:13:13;;;;;;;46.50;25.85;;;;;;;7.80;85.73;101510.06;5123025;27;20238;-80
2022/03/29 10:15:40;;;;;;;45.70;27.25;;;;;;;7.80;85.73;101507.44;5114956;27;20034;-80
2022/03/29 10:18:07;;;;;;;56.83;28.33;;;;;;;7.83;85.52;101498.72;5138321;27;20039;-80
2022/03/29 10:20:34;;;;;;;43.92;25.50;;;;;;;7.84;85.64;101501.31;5102131;28;20072;-80
2022/03/29 10:22:59;;;;;;;47.60;25.40;;;;;;;7.85;85.70;101508.22;5096778;27;20320;-80
2022/03/29 10:25:26;;;;;;;47.08;26.48;;;;;;;7.85;85.40;101507.38;5114608;28;20039;-80
2022/03/29 10:27:54;;;;;;;49.03;26.10;;;;;;;7.86;85.45;101516.94;5096974;28;20051;-80
2022/03/29 10:30:41;;;;;;;44.90;24.98;;;;;;;7.90;85.52;101509.91;5095326;28;20519;-80
2022/03/29 10:33:31;;;;;;;50.75;27.00;;;;;;;7.91;85.54;101512.47;5113357;27;20035;-80
2022/03/29 10:36:11;;;;;;;49.70;25.95;;;;;;;7.92;85.47;101508.13;5113412;27;20277;-80
2022/03/29 10:38:48;;;;;;;51.90;27.38;;;;;;;7.96;85.62;101508.03;5110538;28;20036;-80
2022/03/29 10:41:26;;;;;;;47.70;26.17;;;;;;;8.01;85.24;101497.50;5113210;27;20196;-80
2022/03/29 10:43:53;;;;;;;46.25;26.48;;;;;;;8.04;85.13;101492.22;5093403;28;20115;-80
2022/03/29 10:46:24;;;;;;;50.40;27.60;;;;;;;8.05;85.16;101488.72;5089573;28;20561;-80
2022/03/29 10:49:21;;;;;;;61.22;29.15;;;;;;;8.06;84.84;101485.25;5100157;28;20062;-80
2022/03/29 10:51:53;;;;;;;47.30;26.85;;;;;;;8.05;84.88;101483.50;5112381;27;20023;-80
2022/03/29 10:54:26;;;;;;;49.33;27.08;;;;;;;8.08;85.06;101486.06;5109837;28;20275;-80
2022/03/29 10:57:24;;;;;;;49.97;26.55;;;;;;;8.09;85.10;101485.16;5107374;28;20069;-80
2022/03/29 10:59:58;;;;;;;44.45;25.38;;;;;;;8.14;85.23;101485.09;5091796;28;20035;-80
2022/03/29 11:02:25;;;;;;;51.38;26.88;;;;;;;8.20;84.92;101477.97;5107907;27;20032;-81
2022/03/29 11:05:07;;;;;;;49.58;25.30;;;;;;;8.20;84.86;101483.19;5108174;27;20048;-80
2022/03/29 11:07:35;;;;;;;46.45;26.75;;;;;;;8.20;84.74;101482.34;5111789;28;20032;-81
2022/03/29 11:10:16;;;;;;;43.63;27.30;;;;;;;8.26;84.65;101484.84;5093769;28;20032;-81
2022/03/29 11:12:53;;;;;;;50.90;27.67;;;;;;;8.29;84.87;101474.31;5109700;28;20288;-80
2022/03/29 11:15:24;;;;;;;47.63;26.10;;;;;;;8.30;84.59;101475.19;5096678;28;20192;-80
2022/03/29 11:17:51;;;;;;;47.78;26.70;;;;;;;8.31;84.55;101462.09;5094458;28;20061;-81
2022/03/29 11:20:32;;;;;;;42.70;26.20;;;;;;;8.34;84.54;101459.44;5111891;28;20055;-80
2022/03/29 11:23:04;;;;;;;46.10;23.58;;;;;;;8.35;84.06;101452.44;5098411;28;20053;-81
2022/03/29 11:25:40;;;;;;;46.53;26.13;;;;;;;8.35;84.10;101448.09;5103395;28;20063;-81
2022/03/29 11:28:11;;;;;;;47.72;25.13;;;;;;;8.35;84.03;101462.88;5107648;28;20072;-80
2022/03/29 11:30:37;;;;;;;47.85;26.40;;;;;;;8.38;84.25;101441.94;5079741;28;20492;-81